createdAt,value
2023-01-12T00:02:26.802Z,4.97
2023-01-12T00:04:55.342Z,4.93
2023-01-12T00:07:24.496Z,4.89
2023-01-12T00:09:52.666Z,4.84
2023-01-12T00:12:21.330Z,4.78
2023-01-12T00:14:50.328Z,4.71
2023-01-12T00:17:20.368Z,4.66
2023-01-12T00:19:48.748Z,4.63
2023-01-12T00:22:17.552Z,4.58
2023-01-12T00:24:48.868Z,4.56
2023-01-12T00:27:20.291Z,4.54
2023-01-12T00:29:50.301Z,4.50
2023-01-12T00:32:20.669Z,4.49
2023-01-12T00:34:49.298Z,4.47
2023-01-12T00:37:20.081Z,4.42
2023-01-12T00:40:01.317Z,4.40
2023-01-12T00:42:49.115Z,4.32
2023-01-12T00:45:23.689Z,4.31
2023-01-12T00:47:53.160Z,4.29
2023-01-12T00:50:21.583Z,4.25
2023-01-12T00:52:49.700Z,4.23
2023-01-12T00:55:17.990Z,4.16
2023-01-12T00:57:46.064Z,4.09
2023-01-12T01:00:14.801Z,4.05
2023-01-12T01:02:43.169Z,4.04
2023-01-12T01:05:11.629Z,4.00
2023-01-12T01:07:40.308Z,3.97
2023-01-12T01:10:08.903Z,3.96
2023-01-12T01:12:37.075Z,3.93
2023-01-12T01:15:06.058Z,3.90
2023-01-12T01:17:34.534Z,3.88
2023-01-12T01:20:02.726Z,3.88
2023-01-12T01:22:30.993Z,3.87
2023-01-12T01:24:59.300Z,3.88
2023-01-12T01:27:27.831Z,3.89
2023-01-12T01:29:56.023Z,3.88
2023-01-12T01:32:24.088Z,3.89
2023-01-12T01:34:52.192Z,3.90
2023-01-12T01:37:22.668Z,3.90
2023-01-12T01:39:51.298Z,3.89
2023-01-12T01:42:28.698Z,3.89
2023-01-12T01:45:01.755Z,3.85
2023-01-12T01:47:43.052Z,3.83
2023-01-12T01:50:36.657Z,3.82
2023-01-12T01:53:12.998Z,3.81
2023-01-12T01:55:50.907Z,3.82
2023-01-12T01:58:29.982Z,3.80
2023-01-12T02:00:59.458Z,3.79
2023-01-12T02:03:32.096Z,3.78
2023-01-12T02:06:01.134Z,3.73
2023-01-12T02:08:38.927Z,3.71
2023-01-12T02:11:28.452Z,3.70
2023-01-12T02:14:15.318Z,3.63
2023-01-12T02:17:10.534Z,3.64
2023-01-12T02:20:22.659Z,3.64
2023-01-12T02:23:24.264Z,3.63
2023-01-12T02:26:04.642Z,3.63
2023-01-12T02:29:05.404Z,3.63
2023-01-12T02:31:52.596Z,3.61
2023-01-12T02:34:39.044Z,3.57
2023-01-12T02:37:33.626Z,3.53
2023-01-12T02:40:22.541Z,3.52
2023-01-12T02:43:08.427Z,3.52
2023-01-12T02:45:47.121Z,3.52
2023-01-12T02:48:39.512Z,3.53
2023-01-12T02:51:16.674Z,3.51
2023-01-12T02:54:02.268Z,3.49
2023-01-12T02:56:36.529Z,3.44
2023-01-12T02:59:12.618Z,3.42
2023-01-12T03:01:44.760Z,3.42
2023-01-12T03:04:16.244Z,3.41
2023-01-12T03:07:05.305Z,3.41
2023-01-12T03:09:48.671Z,3.39
2023-01-12T03:12:26.347Z,3.39
2023-01-12T03:14:57.146Z,3.39
2023-01-12T03:17:51.124Z,3.40
2023-01-12T03:20:27.032Z,3.39
2023-01-12T03:23:02.606Z,3.37
2023-01-12T03:25:34.784Z,3.32
2023-01-12T03:28:07.676Z,3.23
2023-01-12T03:30:40.067Z,3.17
2023-01-12T03:33:09.645Z,3.10
2023-01-12T03:35:54.978Z,3.10
2023-01-12T03:38:43.843Z,3.10
2023-01-12T03:41:22.818Z,3.11
2023-01-12T03:43:53.499Z,3.13
2023-01-12T03:46:47.767Z,3.12
2023-01-12T03:49:58.572Z,3.10
2023-01-12T03:52:29.164Z,3.04
2023-01-12T03:55:00.887Z,2.96
2023-01-12T03:57:30.892Z,2.91
2023-01-12T04:00:01.615Z,2.85
2023-01-12T04:02:30.329Z,2.66
2023-01-12T04:04:59.388Z,2.53
2023-01-12T04:07:27.767Z,2.49
2023-01-12T04:09:57.928Z,2.50
2023-01-12T04:12:26.646Z,2.50
2023-01-12T04:14:55.528Z,2.51
2023-01-12T04:17:25.653Z,2.49
2023-01-12T04:19:54.920Z,2.47
2023-01-12T04:22:42.419Z,2.45
2023-01-12T04:25:13.721Z,2.47
2023-01-12T04:27:47.381Z,2.48
2023-01-12T04:30:17.791Z,2.48
2023-01-12T04:32:47.497Z,2.47
2023-01-12T04:35:17.458Z,2.47
2023-01-12T04:37:46.431Z,2.48
2023-01-12T04:40:16.725Z,2.50
2023-01-12T04:43:02.351Z,2.54
2023-01-12T04:45:35.574Z,2.57
2023-01-12T04:48:06.492Z,2.62
2023-01-12T04:50:35.908Z,2.62
2023-01-12T04:53:06.576Z,2.59
2023-01-12T04:55:38.222Z,2.56
2023-01-12T04:58:07.695Z,2.56
2023-01-12T05:00:36.955Z,2.55
2023-01-12T05:03:05.787Z,2.55
2023-01-12T05:05:34.791Z,2.57
2023-01-12T05:08:23.984Z,2.58
2023-01-12T05:11:02.357Z,2.60
2023-01-12T05:13:32.226Z,2.64
2023-01-12T18:52:05.001Z,4.60
2023-01-12T18:54:34.801Z,4.72
2023-01-12T18:57:03.758Z,4.87
2023-01-12T18:59:33.891Z,4.99
2023-01-12T19:02:02.676Z,5.09
2023-01-12T19:04:43.722Z,5.16
2023-01-12T19:07:14.955Z,5.23
2023-01-12T19:09:43.995Z,5.31
2023-01-12T19:12:13.044Z,5.37
2023-01-12T19:15:01.019Z,5.40
2023-01-12T19:17:33.758Z,5.40
2023-01-12T19:20:08.837Z,5.43
2023-01-12T19:22:56.920Z,5.47
2023-01-12T19:25:44.265Z,5.47
2023-01-12T19:28:36.196Z,5.49
2023-01-12T19:31:07.915Z,5.53
2023-01-12T19:33:36.875Z,5.60
2023-01-12T19:36:08.588Z,5.61
2023-01-12T19:38:38.530Z,5.66
2023-01-12T19:41:14.881Z,5.68
2023-01-12T19:43:46.379Z,5.70
2023-01-12T19:46:15.352Z,5.71
2023-01-12T19:48:45.318Z,5.72
2023-01-12T19:51:14.828Z,5.73
2023-01-12T19:53:43.591Z,5.75
2023-01-12T19:56:13.400Z,5.78
2023-01-12T19:58:43.162Z,5.77
2023-01-12T20:01:21.672Z,5.77
2023-01-12T20:03:51.498Z,5.77
2023-01-12T20:06:19.907Z,5.75
2023-01-12T20:08:48.895Z,5.72
2023-01-12T20:11:17.775Z,5.74
2023-01-12T20:13:46.898Z,5.72
2023-01-12T20:16:15.722Z,5.68
2023-01-12T20:18:44.491Z,5.70
2023-01-12T20:21:13.548Z,5.69
2023-01-12T20:23:42.633Z,5.63
2023-01-12T20:26:13.191Z,5.64
2023-01-12T20:28:42.707Z,5.54
2023-01-12T20:31:16.964Z,5.57
2023-01-12T20:33:45.971Z,5.56
2023-01-12T20:36:16.995Z,5.58
2023-01-12T20:38:47.692Z,5.58
2023-01-12T20:41:16.436Z,5.59
2023-01-12T20:43:45.555Z,5.57
2023-01-12T20:46:15.649Z,5.54
2023-01-12T20:48:45.737Z,5.45
2023-01-12T20:51:17.235Z,5.39
2023-01-12T20:53:46.036Z,5.40
2023-01-12T20:56:15.370Z,5.39
2023-01-12T20:58:44.462Z,5.31
2023-01-12T21:01:15.839Z,5.35
2023-01-12T21:03:45.018Z,5.38
2023-01-12T21:06:20.786Z,5.39
2023-01-12T21:08:49.573Z,5.41
2023-01-12T21:11:21.478Z,5.42
2023-01-12T21:13:50.386Z,5.42
2023-01-12T21:16:20.364Z,5.40
2023-01-12T21:18:49.992Z,5.39
2023-01-12T21:21:19.185Z,5.39
2023-01-12T21:23:47.930Z,5.38
2023-01-12T21:26:16.728Z,5.34
2023-01-12T21:28:45.477Z,5.32
2023-01-12T21:31:14.213Z,5.29
2023-01-12T21:33:43.321Z,5.26
2023-01-12T21:36:14.503Z,5.25
2023-01-12T21:38:43.461Z,5.24
2023-01-12T21:41:12.931Z,5.23
2023-01-12T21:43:41.916Z,5.22
2023-01-12T21:46:11.396Z,5.21
2023-01-12T21:48:40.610Z,5.21
2023-01-12T21:51:12.917Z,5.20
2023-01-12T21:53:45.598Z,5.19
2023-01-12T21:56:15.076Z,5.17
2023-01-12T21:58:43.914Z,5.16
2023-01-12T22:01:16.045Z,5.14
2023-01-12T22:03:46.014Z,5.14
2023-01-12T22:06:15.189Z,5.12
2023-01-12T22:08:44.793Z,5.09
2023-01-12T22:11:16.157Z,5.09
2023-01-12T22:13:45.822Z,5.10
2023-01-12T22:16:16.628Z,5.11
2023-01-12T22:18:49.983Z,5.09
2023-01-12T22:21:20.504Z,5.09
2023-01-12T22:23:50.044Z,5.08
2023-01-12T22:26:19.409Z,5.06
2023-01-12T22:28:49.682Z,5.04
2023-01-12T22:31:21.665Z,5.01
2023-01-12T22:34:04.327Z,5.00
2023-01-12T22:36:35.430Z,5.01
2023-01-12T22:39:04.061Z,5.02
2023-01-12T22:41:32.785Z,5.01
2023-01-12T22:44:01.556Z,5.01
2023-01-12T22:46:30.369Z,5.00
2023-01-12T22:49:02.028Z,4.99
2023-01-12T22:51:30.855Z,4.97
2023-01-12T22:54:00.402Z,4.95
2023-01-12T22:56:28.675Z,4.93
2023-01-12T22:58:56.971Z,4.91
2023-01-12T23:01:26.549Z,4.85
2023-01-12T23:03:59.348Z,4.78
2023-01-12T23:06:27.837Z,4.76
2023-01-12T23:08:56.804Z,4.69
2023-01-12T23:11:27.734Z,4.69
2023-01-12T23:13:57.103Z,4.72
2023-01-12T23:16:27.057Z,4.76
2023-01-12T23:19:00.586Z,4.78
2023-01-12T23:21:29.306Z,4.79
2023-01-12T23:23:59.898Z,4.79
2023-01-12T23:26:32.225Z,4.81
2023-01-12T23:29:03.640Z,4.81
2023-01-12T23:31:33.855Z,4.82
2023-01-12T23:34:02.872Z,4.81
2023-01-12T23:36:31.439Z,4.81
2023-01-12T23:39:02.669Z,4.79
2023-01-12T23:41:33.612Z,4.78
2023-01-12T23:44:05.540Z,4.75
2023-01-12T23:46:36.853Z,4.75
2023-01-12T23:49:06.499Z,4.74
2023-01-12T23:51:36.590Z,4.72
2023-01-12T23:54:05.545Z,4.69
2023-01-12T23:56:35.381Z,4.67
2023-01-12T23:59:04.066Z,4.65
